Time;durP1;ratioP1;P1;durP2;ratioP2;P2;SDS_P1;SDS_P2;PMS_P1;PMS_P2;Temp;Humidity;BMP_temperature;BMP_pressure;BME280_temperature;BME280_humidity;BME280_pressure;Samples;Min_cycle;Max_cycle;Signal;HPM_P1;HPM_P2
2022/02/21 00:00:27;;;;;;;3.85;1.10;;;8.80;99.90;;;;;;5071276;28;20025;-71
2022/02/21 00:02:55;;;;;;;4.53;1.00;;;8.40;99.90;;;;;;5068393;28;20033;-71
2022/02/21 00:05:21;;;;;;;3.72;0.93;;;8.20;99.90;;;;;;5071560;28;20063;-70
2022/02/21 00:07:48;;;;;;;4.00;1.00;;;8.00;99.90;;;;;;5069091;28;20505;-70
2022/02/21 00:10:15;;;;;;;4.85;0.80;;;7.90;99.90;;;;;;5069277;28;20119;-70
2022/02/21 00:12:42;;;;;;;3.50;0.90;;;7.80;99.90;;;;;;5071696;28;20073;-71
2022/02/21 00:15:09;;;;;;;5.68;0.95;;;7.70;99.90;;;;;;5068968;28;20024;-73
2022/02/21 00:17:35;;;;;;;6.63;1.20;;;7.60;99.90;;;;;;5072304;28;20024;-71
2022/02/21 00:20:01;;;;;;;6.13;1.00;;;7.50;99.90;;;;;;5068452;28;20109;-71
2022/02/21 00:22:27;;;;;;;8.75;1.35;;;7.50;99.90;;;;;;5070076;28;20491;-71
2022/02/21 00:24:53;;;;;;;8.50;1.10;;;7.40;99.90;;;;;;5072076;28;20059;-71
2022/02/21 00:27:20;;;;;;;7.15;1.60;;;7.40;99.90;;;;;;5071797;28;20020;-71
2022/02/21 00:29:46;;;;;;;6.63;1.23;;;7.40;99.90;;;;;;5069676;28;20024;-72
2022/02/21 00:32:12;;;;;;;11.05;1.50;;;7.40;99.90;;;;;;5071010;28;20035;-72
2022/02/21 00:34:38;;;;;;;6.85;1.92;;;7.30;99.90;;;;;;5066443;28;20033;-70
2022/02/21 00:37:04;;;;;;;7.75;1.30;;;7.20;99.90;;;;;;5072960;28;20486;-71
2022/02/21 00:39:30;;;;;;;10.73;1.65;;;7.10;99.90;;;;;;5068250;28;20135;-72
2022/02/21 00:41:55;;;;;;;10.82;1.80;;;7.10;99.90;;;;;;5072292;28;20156;-72
2022/02/21 00:44:21;;;;;;;6.05;1.65;;;7.10;99.90;;;;;;5066755;28;20024;-71
2022/02/21 00:46:47;;;;;;;7.00;1.58;;;7.00;99.90;;;;;;5069575;28;20086;-75
2022/02/21 00:49:12;;;;;;;7.07;0.95;;;7.00;99.90;;;;;;5066772;28;20109;-70
2022/02/21 00:51:38;;;;;;;6.85;1.17;;;6.90;99.90;;;;;;5074288;28;20051;-72
2022/02/21 00:54:04;;;;;;;3.78;1.50;;;6.80;99.90;;;;;;5071752;28;20032;-70
2022/02/21 00:56:29;;;;;;;3.88;0.80;;;6.80;99.90;;;;;;5072758;28;20042;-71
2022/02/21 00:58:55;;;;;;;3.38;0.88;;;6.70;99.90;;;;;;5067368;28;20033;-72
2022/02/21 01:01:21;;;;;;;5.63;0.82;;;6.70;99.90;;;;;;5070899;28;20457;-73
2022/02/21 01:03:47;;;;;;;2.60;0.70;;;6.60;99.90;;;;;;5068327;28;20087;-72
2022/02/21 01:06:13;;;;;;;4.18;0.50;;;6.70;99.90;;;;;;5070087;28;20059;-71
2022/02/21 01:08:38;;;;;;;1.98;0.50;;;6.70;99.90;;;;;;5067081;28;20025;-72
2022/02/21 01:11:04;;;;;;;2.65;0.50;;;6.60;99.90;;;;;;5069496;28;20029;-72
2022/02/21 01:13:30;;;;;;;1.02;0.30;;;6.70;99.90;;;;;;5068355;28;20407;-71
2022/02/21 01:15:55;;;;;;;1.60;0.30;;;6.60;99.90;;;;;;5071766;28;20024;-74
2022/02/21 01:18:22;;;;;;;2.65;0.40;;;6.70;99.90;;;;;;5070896;28;20036;-71
2022/02/21 01:20:48;;;;;;;3.28;0.63;;;6.60;99.90;;;;;;5087766;28;20135;-72
2022/02/21 01:23:14;;;;;;;2.95;0.50;;;6.60;99.90;;;;;;5070797;28;20089;-71
2022/02/21 01:25:40;;;;;;;1.95;0.50;;;6.60;99.90;;;;;;5072364;28;20036;-72
2022/02/21 01:28:06;;;;;;;3.45;0.50;;;6.60;99.90;;;;;;5074448;28;20020;-71
2022/02/21 01:30:32;;;;;;;2.35;0.50;;;6.60;99.90;;;;;;5071223;28;20024;-71
2022/02/21 01:32:58;;;;;;;3.90;0.73;;;6.60;99.90;;;;;;5069682;28;20027;-71
2022/02/21 01:35:24;;;;;;;6.32;0.65;;;6.60;99.90;;;;;;5078849;28;20034;-71
2022/02/21 01:37:51;;;;;;;1.60;0.38;;;6.60;99.90;;;;;;5077663;28;20028;-72
2022/02/21 01:40:17;;;;;;;3.85;0.50;;;6.60;99.90;;;;;;5072245;28;20058;-72
2022/02/21 01:42:43;;;;;;;2.00;0.30;;;6.60;99.90;;;;;;5075538;28;20386;-71
2022/02/21 01:45:09;;;;;;;2.35;0.80;;;6.60;99.90;;;;;;5073198;28;20043;-71
2022/02/21 01:47:35;;;;;;;2.60;0.43;;;6.50;99.90;;;;;;5072405;28;20016;-72
2022/02/21 01:50:01;;;;;;;3.15;0.40;;;6.50;99.90;;;;;;5072929;28;20013;-72
2022/02/21 01:52:26;;;;;;;3.72;0.55;;;6.40;99.90;;;;;;5070360;28;20032;-74
2022/02/21 01:54:53;;;;;;;6.38;1.02;;;6.40;99.90;;;;;;5070579;28;20032;-70
2022/02/21 01:57:19;;;;;;;4.07;0.85;;;6.30;99.90;;;;;;5072181;28;20032;-71
2022/02/21 01:59:45;;;;;;;4.97;0.77;;;6.10;99.90;;;;;;5072600;28;20082;-71
2022/02/21 02:02:11;;;;;;;8.40;0.80;;;6.00;99.90;;;;;;5071816;28;20287;-71
2022/02/21 02:04:37;;;;;;;3.85;0.75;;;6.00;99.90;;;;;;5067063;28;20040;-71
2022/02/21 02:07:05;;;;;;;2.72;0.43;;;5.90;99.90;;;;;;5071907;28;20025;-71
2022/02/21 02:09:31;;;;;;;5.53;1.02;;;5.80;99.90;;;;;;5068032;28;20108;-70
2022/02/21 02:11:57;;;;;;;6.32;0.95;;;5.70;99.90;;;;;;5072684;28;20355;-70
2022/02/21 02:14:37;;;;;;;9.32;1.02;;;5.60;99.90;;;;;;5072316;28;20031;-70
2022/02/21 02:17:06;;;;;;;9.07;1.15;;;5.60;99.90;;;;;;5072368;28;20553;-72
2022/02/21 02:19:33;;;;;;;7.38;1.13;;;5.50;99.90;;;;;;5069604;28;20081;-71
2022/02/21 02:22:12;;;;;;;13.43;1.98;;;5.50;99.90;;;;;;5073926;28;20159;-71
2022/02/21 02:24:38;;;;;;;14.55;1.80;;;5.50;99.90;;;;;;5071069;28;20024;-70
2022/02/21 02:27:04;;;;;;;11.95;1.60;;;5.40;99.90;;;;;;5073508;28;20031;-72
2022/02/21 02:29:30;;;;;;;14.73;2.78;;;5.40;99.90;;;;;;5068768;28;20462;-70
2022/02/21 02:31:56;;;;;;;20.05;3.05;;;5.40;99.90;;;;;;5073888;28;20032;-70
2022/02/21 02:34:22;;;;;;;18.17;2.33;;;5.40;99.90;;;;;;5068415;28;20028;-70
2022/02/21 02:36:48;;;;;;;13.07;1.85;;;5.40;99.90;;;;;;5073412;28;20062;-70
2022/02/21 02:39:17;;;;;;;18.20;2.30;;;5.40;99.90;;;;;;5066075;28;20115;-70
2022/02/21 02:41:44;;;;;;;18.13;2.20;;;5.40;99.90;;;;;;5072643;28;20497;-71
2022/02/21 02:44:10;;;;;;;14.85;2.10;;;5.50;99.90;;;;;;5069828;28;20041;-70
2022/02/21 02:46:36;;;;;;;17.20;2.10;;;5.50;99.90;;;;;;5074381;28;20114;-71
2022/02/21 02:49:03;;;;;;;18.30;2.83;;;5.50;99.90;;;;;;5072747;28;20585;-70
2022/02/21 02:51:29;;;;;;;18.55;2.47;;;5.40;99.90;;;;;;5072822;28;20021;-73
2022/02/21 02:53:54;;;;;;;19.40;2.85;;;5.50;99.90;;;;;;5073526;28;20028;-71
2022/02/21 02:56:20;;;;;;;27.63;3.88;;;5.40;99.90;;;;;;5072590;28;20024;-74
2022/02/21 02:58:46;;;;;;;23.00;3.00;;;5.40;99.90;;;;;;5069125;28;20622;-75
2022/02/21 03:01:11;;;;;;;19.17;3.10;;;5.40;99.90;;;;;;5070849;28;20059;-74
2022/02/21 03:03:38;;;;;;;23.13;3.08;;;5.40;99.90;;;;;;5073920;28;20541;-73
2022/02/21 03:06:03;;;;;;;33.75;4.38;;;5.40;99.90;;;;;;5070913;28;20021;-73
2022/02/21 03:08:29;;;;;;;24.73;3.97;;;5.40;99.90;;;;;;5071093;28;20035;-72
2022/02/21 03:10:55;;;;;;;30.65;4.38;;;5.30;99.90;;;;;;5072180;28;20599;-74
2022/02/21 03:13:20;;;;;;;33.60;3.97;;;5.30;99.90;;;;;;5074590;28;20024;-75
2022/02/21 03:15:46;;;;;;;30.67;4.95;;;5.30;99.90;;;;;;5070840;28;20047;-74
2022/02/21 03:18:12;;;;;;;34.13;4.82;;;5.40;99.90;;;;;;5071761;28;20028;-74
2022/02/21 03:20:37;;;;;;;29.48;5.60;;;5.30;99.90;;;;;;5072653;28;20086;-74
2022/02/21 03:23:03;;;;;;;36.03;5.82;;;5.30;99.90;;;;;;5070188;28;20082;-74
2022/02/21 03:25:29;;;;;;;30.10;4.50;;;5.30;99.90;;;;;;5069369;28;20038;-71
2022/02/21 03:27:54;;;;;;;33.42;4.95;;;5.40;99.90;;;;;;5071521;28;20020;-75
2022/02/21 03:30:20;;;;;;;25.02;4.20;;;5.40;99.90;;;;;;5067139;28;20029;-73
2022/02/21 03:32:46;;;;;;;25.27;3.60;;;5.30;99.90;;;;;;5074271;28;20040;-72
2022/02/21 03:35:13;;;;;;;26.15;3.45;;;5.30;99.90;;;;;;5070347;28;20024;-74
2022/02/21 03:37:39;;;;;;;30.65;4.30;;;5.20;99.90;;;;;;5072772;28;20028;-74
2022/02/21 03:40:06;;;;;;;28.33;4.30;;;5.20;99.90;;;;;;5068795;28;20435;-74
2022/02/21 03:42:32;;;;;;;35.78;5.28;;;5.20;99.90;;;;;;5072122;28;20116;-73
2022/02/21 03:45:02;;;;;;;32.83;4.85;;;5.20;99.90;;;;;;5067168;28;20032;-75
2022/02/21 03:47:28;;;;;;;33.55;3.75;;;5.10;99.90;;;;;;5070337;28;20033;-72
2022/02/21 03:49:53;;;;;;;22.17;3.75;;;5.00;99.90;;;;;;5070566;28;20024;-74
2022/02/21 03:52:19;;;;;;;29.58;4.93;;;5.00;99.90;;;;;;5071106;28;20567;-74
2022/02/21 03:54:44;;;;;;;28.48;3.75;;;4.90;99.90;;;;;;5068456;28;20107;-71
2022/02/21 03:57:10;;;;;;;23.85;4.50;;;4.90;99.90;;;;;;5066787;28;20067;-74
2022/02/21 03:59:36;;;;;;;29.00;5.00;;;4.90;99.90;;;;;;5071302;28;20151;-74
2022/02/21 04:02:02;;;;;;;26.30;4.22;;;4.90;99.90;;;;;;5069769;28;20183;-73
2022/02/21 04:04:27;;;;;;;30.85;5.07;;;4.80;99.90;;;;;;5067077;28;21004;-73
2022/02/21 04:06:53;;;;;;;32.58;4.43;;;4.80;99.90;;;;;;5073848;28;20032;-73
2022/02/21 04:09:18;;;;;;;34.13;4.55;;;4.80;99.90;;;;;;5070073;28;20032;-74
2022/02/21 04:11:44;;;;;;;34.15;4.68;;;4.80;99.90;;;;;;5068185;28;20016;-75
2022/02/21 04:14:10;;;;;;;29.10;4.28;;;4.70;99.90;;;;;;5069264;28;20429;-73
2022/02/21 04:16:35;;;;;;;26.30;5.03;;;4.70;99.90;;;;;;5072946;28;20380;-72
2022/02/21 04:19:02;;;;;;;29.75;4.38;;;4.70;99.90;;;;;;5081701;28;20024;-74
2022/02/21 04:21:29;;;;;;;37.25;6.00;;;4.70;99.90;;;;;;5073628;28;20060;-73
2022/02/21 04:23:55;;;;;;;33.67;5.75;;;4.60;99.90;;;;;;5070644;28;20121;-74
2022/02/21 04:26:43;;;;;;;25.90;3.60;;;4.60;99.90;;;;;;5073237;28;20028;-74
2022/02/21 04:29:09;;;;;;;35.10;4.68;;;4.60;99.90;;;;;;5069559;28;20021;-74
2022/02/21 04:31:35;;;;;;;38.08;4.85;;;4.60;99.90;;;;;;5071765;28;20398;-74
2022/02/21 04:34:01;;;;;;;27.77;4.60;;;4.60;99.90;;;;;;5069121;28;20027;-74
2022/02/21 04:36:28;;;;;;;24.73;4.78;;;4.70;99.90;;;;;;5070554;28;20036;-74
2022/02/21 04:38:54;;;;;;;20.40;2.88;;;4.60;99.90;;;;;;5066728;28;20032;-73
2022/02/21 04:41:20;;;;;;;18.27;2.58;;;4.40;99.90;;;;;;5070231;28;20118;-73
2022/02/21 04:43:46;;;;;;;19.58;3.10;;;4.20;99.90;;;;;;5070778;28;20533;-73
2022/02/21 04:46:12;;;;;;;28.42;3.55;;;4.10;99.90;;;;;;5070901;28;20028;-74
2022/02/21 04:48:37;;;;;;;16.27;2.97;;;4.00;99.90;;;;;;5068533;28;20028;-75
2022/02/21 04:51:03;;;;;;;18.38;2.67;;;3.80;99.90;;;;;;5072435;28;20112;-74
2022/02/21 04:53:29;;;;;;;17.48;2.15;;;3.70;99.90;;;;;;5069851;28;20885;-75
2022/02/21 04:55:55;;;;;;;19.00;2.97;;;3.60;99.90;;;;;;5071517;28;20077;-73
2022/02/21 04:58:20;;;;;;;15.05;2.55;;;3.60;99.90;;;;;;5068337;28;20436;-74
2022/02/21 05:00:46;;;;;;;21.80;2.55;;;3.60;99.90;;;;;;5068575;28;20078;-74
2022/02/21 05:03:12;;;;;;;20.08;2.90;;;3.60;99.90;;;;;;5065826;28;20037;-73
2022/02/21 05:05:37;;;;;;;26.08;3.10;;;3.60;99.90;;;;;;5062987;28;20103;-73
2022/02/21 05:08:03;;;;;;;25.55;3.80;;;3.60;99.90;;;;;;5051252;28;20376;-72
2022/02/21 05:10:29;;;;;;;20.55;3.50;;;3.60;99.90;;;;;;5070153;28;20399;-71
2022/02/21 05:12:55;;;;;;;33.03;3.78;;;3.70;99.90;;;;;;5068942;28;20037;-73
2022/02/21 05:15:20;;;;;;;32.97;3.63;;;3.70;99.90;;;;;;5065809;28;20041;-73
2022/02/21 05:17:46;;;;;;;33.55;3.95;;;3.80;99.90;;;;;;5071763;28;20119;-74
2022/02/21 05:20:13;;;;;;;31.90;4.35;;;3.80;99.90;;;;;;5068800;28;20043;-74
2022/02/21 05:22:39;;;;;;;21.85;3.70;;;3.90;99.90;;;;;;5068109;28;20046;-74
2022/02/21 05:25:06;;;;;;;33.72;3.83;;;3.90;99.90;;;;;;5069963;28;20020;-74
2022/02/21 05:27:40;;;;;;;29.42;4.25;;;4.00;99.90;;;;;;5062645;28;20048;-74
2022/02/21 05:30:07;;;;;;;31.30;5.43;;;4.00;99.90;;;;;;5066600;28;20429;-73
2022/02/21 05:32:33;;;;;;;23.88;3.60;;;4.00;99.90;;;;;;5065238;28;20032;-74
2022/02/21 05:34:59;;;;;;;30.13;4.38;;;4.00;99.90;;;;;;5065776;28;20036;-74
2022/02/21 05:37:25;;;;;;;27.80;3.88;;;4.10;99.90;;;;;;5070215;28;20047;-73
2022/02/21 05:39:50;;;;;;;20.65;3.47;;;4.10;99.90;;;;;;5068548;28;20033;-74
2022/02/21 05:42:16;;;;;;;37.65;4.80;;;4.10;99.90;;;;;;5067207;28;20028;-73
2022/02/21 05:44:42;;;;;;;35.10;3.70;;;4.10;99.90;;;;;;5064506;28;20145;-74
2022/02/21 05:47:09;;;;;;;27.70;3.85;;;4.10;99.90;;;;;;5067688;28;20055;-72
2022/02/21 05:49:34;;;;;;;28.23;4.10;;;4.10;99.90;;;;;;5065822;28;20586;-73
2022/02/21 05:52:01;;;;;;;17.98;3.53;;;4.10;99.90;;;;;;5069537;28;20115;-74
2022/02/21 05:54:27;;;;;;;29.73;3.10;;;4.00;99.90;;;;;;5067745;28;20032;-73
2022/02/21 05:56:53;;;;;;;23.65;4.40;;;4.00;99.90;;;;;;5070745;28;20036;-73
2022/02/21 05:59:18;;;;;;;23.75;3.42;;;4.00;99.90;;;;;;5069424;28;20508;-73
2022/02/21 06:01:44;;;;;;;24.85;3.83;;;4.00;99.90;;;;;;5059805;28;20590;-74
2022/02/21 06:04:10;;;;;;;22.40;4.35;;;4.00;99.90;;;;;;5068601;28;20043;-72
2022/02/21 06:06:36;;;;;;;25.38;3.78;;;4.10;99.90;;;;;;5074094;28;20391;-74
2022/02/21 06:09:03;;;;;;;18.88;3.63;;;4.10;99.90;;;;;;5071606;28;20056;-74
2022/02/21 06:11:29;;;;;;;11.48;2.88;;;4.00;99.90;;;;;;5073337;28;20128;-74
2022/02/21 06:13:54;;;;;;;19.73;2.42;;;3.90;99.90;;;;;;5069877;28;20862;-74
2022/02/21 06:16:21;;;;;;;15.48;3.38;;;3.90;99.90;;;;;;5071231;28;20469;-73
2022/02/21 06:18:46;;;;;;;26.13;3.25;;;3.80;99.90;;;;;;5066272;28;20029;-73
2022/02/21 06:21:13;;;;;;;16.08;3.00;;;3.80;99.90;;;;;;5071968;28;20034;-73
2022/02/21 06:23:38;;;;;;;16.33;2.70;;;3.80;99.90;;;;;;5073368;28;20029;-74
2022/02/21 06:26:05;;;;;;;22.83;3.30;;;3.70;99.90;;;;;;5071403;28;20425;-72
2022/02/21 06:28:31;;;;;;;28.45;3.58;;;3.60;99.90;;;;;;5071841;28;20056;-73
2022/02/21 06:30:57;;;;;;;21.88;3.05;;;3.60;99.90;;;;;;5074708;28;20032;-73
2022/02/21 06:33:23;;;;;;;21.23;4.50;;;3.70;99.90;;;;;;5066406;28;20028;-72
2022/02/21 06:35:49;;;;;;;19.80;4.00;;;3.70;99.90;;;;;;5067554;28;20042;-72
2022/02/21 06:38:14;;;;;;;34.88;3.90;;;3.60;99.90;;;;;;5065531;28;20034;-72
2022/02/21 06:40:40;;;;;;;21.60;3.30;;;3.60;99.90;;;;;;5069137;28;20038;-73
2022/02/21 06:43:06;;;;;;;21.60;4.03;;;3.60;99.90;;;;;;5072288;28;20061;-70
2022/02/21 06:45:32;;;;;;;23.77;4.30;;;3.70;99.90;;;;;;5071812;28;20393;-72
2022/02/21 06:47:58;;;;;;;27.58;3.47;;;3.80;99.90;;;;;;5067154;28;20024;-70
2022/02/21 06:50:25;;;;;;;24.38;3.78;;;3.80;99.90;;;;;;5070698;28;20101;-73
2022/02/21 06:52:51;;;;;;;28.50;3.55;;;3.70;99.90;;;;;;5073409;28;20536;-72
2022/02/21 06:55:17;;;;;;;19.15;3.45;;;3.70;99.90;;;;;;5071578;28;20040;-72
2022/02/21 06:57:45;;;;;;;17.98;3.10;;;3.70;99.90;;;;;;5081355;28;20033;-73
2022/02/21 07:00:12;;;;;;;15.90;3.22;;;3.80;99.90;;;;;;5070660;28;20036;-71
2022/02/21 07:02:38;;;;;;;17.73;3.70;;;3.80;99.90;;;;;;5075332;28;20082;-74
2022/02/21 07:05:05;;;;;;;18.70;3.25;;;3.80;99.90;;;;;;5068842;28;20420;-73
2022/02/21 07:07:31;;;;;;;24.02;3.85;;;3.80;99.90;;;;;;5073767;28;20024;-72
2022/02/21 07:09:57;;;;;;;31.58;3.92;;;3.80;99.90;;;;;;5070968;28;20063;-73
2022/02/21 07:12:23;;;;;;;19.90;3.10;;;3.80;99.90;;;;;;5074267;28;20052;-72
2022/02/21 07:14:49;;;;;;;22.60;3.78;;;3.80;99.90;;;;;;5074260;28;20111;-73
2022/02/21 07:17:15;;;;;;;35.88;4.45;;;3.80;99.90;;;;;;5070800;28;20463;-73
2022/02/21 07:19:41;;;;;;;24.67;3.38;;;3.80;99.90;;;;;;5071522;28;20037;-71
2022/02/21 07:22:07;;;;;;;24.17;3.58;;;3.70;99.90;;;;;;5069420;28;20109;-73
2022/02/21 07:24:32;;;;;;;24.48;3.20;;;3.60;99.90;;;;;;5068592;28;20025;-73
2022/02/21 07:27:00;;;;;;;20.35;3.13;;;3.60;99.90;;;;;;5069358;28;20025;-73
2022/02/21 07:29:27;;;;;;;22.70;3.50;;;3.70;99.90;;;;;;5052791;28;20887;-73
2022/02/21 07:31:53;;;;;;;24.65;3.10;;;3.60;99.90;;;;;;5075163;28;20059;-72
2022/02/21 07:34:19;;;;;;;18.48;3.30;;;3.50;99.90;;;;;;5069815;28;20514;-74
2022/02/21 07:36:45;;;;;;;22.58;3.50;;;3.50;99.90;;;;;;5074527;28;20043;-73
2022/02/21 07:39:11;;;;;;;21.17;3.17;;;3.60;99.90;;;;;;5072117;28;20036;-73
2022/02/21 07:41:41;;;;;;;15.13;3.05;;;3.70;99.90;;;;;;5068204;28;20099;-73
2022/02/21 07:44:07;;;;;;;26.33;3.60;;;3.90;99.90;;;;;;5077721;28;20032;-72
2022/02/21 07:46:32;;;;;;;18.15;3.08;;;3.90;99.90;;;;;;5078004;28;20025;-73
2022/02/21 07:48:58;;;;;;;21.52;3.47;;;4.00;99.90;;;;;;5071841;28;20024;-74
2022/02/21 07:51:26;;;;;;;21.95;3.03;;;4.00;99.90;;;;;;5076054;28;20024;-72
2022/02/21 07:53:52;;;;;;;17.08;3.20;;;4.00;99.90;;;;;;5076450;28;20021;-73
2022/02/21 07:56:18;;;;;;;17.30;3.22;;;4.00;99.90;;;;;;5067299;28;20498;-73
2022/02/21 07:58:43;;;;;;;22.55;3.05;;;4.00;99.90;;;;;;5072120;28;20028;-71
2022/02/21 08:01:09;;;;;;;19.10;3.05;;;3.90;99.90;;;;;;5067506;28;20036;-70
2022/02/21 08:03:38;;;;;;;18.45;3.22;;;3.90;99.90;;;;;;5071930;28;20043;-69
2022/02/21 08:06:09;;;;;;;20.98;3.50;;;3.80;99.90;;;;;;5075239;28;20130;-70
2022/02/21 08:08:35;;;;;;;19.00;3.15;;;3.80;99.90;;;;;;5071969;28;20058;-70
2022/02/21 08:11:00;;;;;;;23.98;2.90;;;3.70;99.90;;;;;;5071836;28;20033;-71
2022/02/21 08:13:26;;;;;;;17.83;3.22;;;3.70;99.90;;;;;;5070675;28;20063;-71
2022/02/21 08:15:52;;;;;;;27.10;3.75;;;3.60;99.90;;;;;;5074853;28;20057;-71
2022/02/21 08:18:18;;;;;;;25.83;4.32;;;3.50;99.90;;;;;;5072766;28;20110;-71
2022/02/21 08:20:43;;;;;;;27.13;5.28;;;3.50;99.90;;;;;;5073362;28;20116;-72
2022/02/21 08:23:09;;;;;;;26.08;4.15;;;3.50;99.90;;;;;;5077183;28;20492;-72
2022/02/21 08:25:35;;;;;;;19.55;3.28;;;3.50;99.90;;;;;;5067031;28;20028;-72
2022/02/21 08:28:01;;;;;;;24.30;3.35;;;3.40;99.90;;;;;;5071797;28;20081;-72
2022/02/21 08:30:27;;;;;;;22.20;3.17;;;3.40;99.90;;;;;;5073798;28;20311;-72
2022/02/21 08:32:53;;;;;;;20.35;4.10;;;3.30;99.90;;;;;;5078704;28;20088;-72
2022/02/21 08:35:19;;;;;;;16.40;3.70;;;3.30;99.90;;;;;;5077699;28;20088;-71
2022/02/21 08:37:46;;;;;;;14.88;2.65;;;3.20;99.90;;;;;;5072461;28;20085;-72
2022/02/21 08:40:14;;;;;;;20.23;2.88;;;3.10;99.90;;;;;;5057022;28;20171;-73
2022/02/21 08:42:40;;;;;;;13.68;2.30;;;2.90;99.90;;;;;;5076820;28;20157;-73
2022/02/21 08:45:08;;;;;;;12.85;2.63;;;2.90;99.90;;;;;;5056885;28;20025;-73
2022/02/21 08:47:35;;;;;;;19.67;2.50;;;2.80;99.90;;;;;;5071943;28;20530;-73
2022/02/21 08:50:03;;;;;;;20.90;3.10;;;2.70;99.90;;;;;;5072943;28;20100;-72
2022/02/21 08:52:28;;;;;;;16.35;3.90;;;2.60;99.90;;;;;;5073553;28;20372;-72
2022/02/21 08:54:54;;;;;;;16.63;3.00;;;2.60;99.90;;;;;;5075230;28;20090;-73
2022/02/21 08:57:20;;;;;;;16.65;3.47;;;2.60;99.90;;;;;;5053537;22;20424;-72
2022/02/21 08:59:45;;;;;;;22.20;3.42;;;2.60;99.90;;;;;;4996065;28;20033;-71
2022/02/21 09:02:11;;;;;;;13.95;2.88;;;2.70;99.90;;;;;;4999185;28;20458;-71
2022/02/21 09:04:37;;;;;;;17.00;3.08;;;2.70;99.90;;;;;;5001431;28;20029;-72
2022/02/21 09:07:03;;;;;;;23.13;4.38;;;2.70;99.90;;;;;;4991572;28;20543;-72
2022/02/21 09:09:29;;;;;;;33.97;4.65;;;2.80;99.90;;;;;;4980845;28;20031;-72
2022/02/21 09:11:55;;;;;;;31.45;4.82;;;2.90;99.90;;;;;;4995358;28;20575;-72
2022/02/21 09:14:20;;;;;;;21.30;3.70;;;2.90;99.90;;;;;;4983711;28;20038;-72
2022/02/21 09:16:46;;;;;;;30.88;4.03;;;3.00;99.90;;;;;;4982745;28;20023;-72
2022/02/21 09:19:12;;;;;;;26.65;4.03;;;3.10;99.90;;;;;;4979359;28;20044;-72
2022/02/21 09:21:38;;;;;;;21.08;3.65;;;3.20;99.90;;;;;;4981373;28;20026;-72
2022/02/21 09:24:04;;;;;;;19.05;3.38;;;3.30;99.90;;;;;;4980992;28;20031;-70
2022/02/21 09:26:31;;;;;;;20.27;3.53;;;3.30;99.90;;;;;;4982777;28;20030;-72
2022/02/21 09:28:58;;;;;;;25.80;4.40;;;3.40;99.90;;;;;;4979378;28;20137;-72
2022/02/21 09:31:25;;;;;;;27.13;4.07;;;3.50;99.90;;;;;;4980289;28;20159;-72
2022/02/21 09:33:50;;;;;;;20.73;3.85;;;3.50;99.90;;;;;;4981924;28;20030;-72
2022/02/21 09:36:16;;;;;;;19.45;3.50;;;3.60;99.90;;;;;;4977322;28;20034;-72
2022/02/21 09:38:42;;;;;;;36.03;3.97;;;3.60;99.90;;;;;;4983226;28;20055;-72
2022/02/21 09:41:08;;;;;;;24.48;3.50;;;3.60;99.90;;;;;;4983539;28;20034;-72
2022/02/21 09:43:33;;;;;;;21.00;3.72;;;3.70;99.90;;;;;;4983721;28;20211;-72
2022/02/21 09:46:02;;;;;;;27.38;3.90;;;3.80;99.90;;;;;;4984034;28;20037;-71
2022/02/21 09:48:28;;;;;;;27.13;3.92;;;3.80;99.90;;;;;;4984328;28;20030;-73
2022/02/21 09:51:00;;;;;;;20.90;3.78;;;3.80;99.90;;;;;;4983584;28;20027;-72
2022/02/21 09:53:31;;;;;;;21.10;3.90;;;3.90;99.90;;;;;;4981832;28;20037;-71
2022/02/21 09:55:56;;;;;;;;;;;3.90;99.90;;;;;;4982964;28;20105;-71
2022/02/21 09:58:23;;;;;;;29.27;4.00;;;4.00;99.90;;;;;;4983557;28;20474;-70
2022/02/21 10:00:50;;;;;;;25.35;4.88;;;4.10;99.90;;;;;;4983395;28;20049;-72
2022/02/21 10:03:39;;;;;;;26.83;4.88;;;4.20;99.90;;;;;;4983098;28;20026;-71
2022/02/21 10:06:22;;;;;;;11.43;2.75;;;4.20;99.90;;;;;;4984012;28;20038;-72
2022/02/21 10:09:12;;;;;;;29.38;5.20;;;4.20;99.90;;;;;;4983602;28;20036;-72
2022/02/21 10:11:46;;;;;;;33.17;4.78;;;4.30;99.90;;;;;;4982486;28;20101;-72
2022/02/21 10:14:19;;;;;;;23.92;3.40;;;4.40;99.90;;;;;;4983224;28;20058;-72
2022/02/21 10:16:47;;;;;;;25.38;3.17;;;4.50;99.90;;;;;;4985019;28;20027;-72
2022/02/21 10:19:20;;;;;;;27.27;3.78;;;4.50;99.90;;;;;;4989633;28;20109;-71
2022/02/21 10:21:59;;;;;;;24.35;3.53;;;4.50;99.90;;;;;;4983903;28;20022;-72
2022/02/21 10:24:26;;;;;;;21.92;3.38;;;4.50;99.90;;;;;;4998359;28;20634;-72
2022/02/21 10:26:53;;;;;;;25.92;4.28;;;4.60;99.90;;;;;;4983535;28;20038;-73
2022/02/21 10:29:20;;;;;;;25.35;3.65;;;4.70;99.90;;;;;;4985784;28;20508;-73
2022/02/21 10:31:46;;;;;;;28.23;3.95;;;4.70;99.90;;;;;;4982443;28;20038;-74
2022/02/21 10:34:12;;;;;;;19.60;4.25;;;4.80;99.90;;;;;;4983028;28;20085;-73
2022/02/21 10:36:45;;;;;;;21.02;3.05;;;4.80;99.90;;;;;;4984213;28;20120;-73
2022/02/21 10:39:17;;;;;;;17.95;3.28;;;4.90;99.90;;;;;;4985315;28;20045;-72
2022/02/21 10:41:48;;;;;;;23.85;4.00;;;4.90;99.90;;;;;;4983701;28;20019;-73
2022/02/21 10:44:31;;;;;;;17.58;3.22;;;4.90;99.90;;;;;;4983550;28;20534;-73
2022/02/21 10:47:15;;;;;;;16.92;3.20;;;5.00;99.90;;;;;;4983502;28;20042;-72
2022/02/21 10:49:54;;;;;;;22.25;3.20;;;5.00;99.90;;;;;;4981326;28;20034;-72
2022/02/21 10:52:25;;;;;;;12.40;2.50;;;4.90;99.90;;;;;;4989607;28;20070;-73
2022/02/21 10:54:53;;;;;;;15.50;2.67;;;4.80;99.90;;;;;;4992579;28;20444;-72
2022/02/21 10:57:22;;;;;;;18.35;3.20;;;4.90;99.90;;;;;;4991294;28;20042;-73
2022/02/21 10:59:48;;;;;;;24.65;3.17;;;4.80;99.90;;;;;;4984656;28;20037;-72
2022/02/21 11:02:17;;;;;;;22.40;3.45;;;4.80;99.90;;;;;;4996526;28;20400;-72
2022/02/21 11:04:44;;;;;;;14.68;3.30;;;4.80;99.90;;;;;;4985309;28;20395;-73
2022/02/21 11:07:10;;;;;;;12.80;3.42;;;4.70;99.90;;;;;;4980475;28;20357;-72
2022/02/21 11:09:38;;;;;;;23.48;4.38;;;4.70;99.90;;;;;;4985970;28;20105;-73
2022/02/21 11:12:05;;;;;;;17.77;2.97;;;4.80;99.90;;;;;;5000832;28;20034;-73
2022/02/21 11:14:32;;;;;;;13.48;2.80;;;4.80;99.90;;;;;;4997667;28;20041;-72
2022/02/21 11:17:03;;;;;;;19.20;3.72;;;4.80;99.90;;;;;;4991360;28;20030;-72
2022/02/21 11:19:30;;;;;;;25.67;6.13;;;4.70;99.90;;;;;;4986171;28;20031;-73
2022/02/21 11:21:57;;;;;;;13.48;3.50;;;4.80;99.90;;;;;;4992178;28;20121;-73
2022/02/21 11:24:29;;;;;;;19.30;3.65;;;4.70;99.90;;;;;;4991275;28;20053;-74
2022/02/21 11:27:20;;;;;;;15.85;3.03;;;4.60;99.90;;;;;;5000951;28;20027;-73
2022/02/21 11:30:10;;;;;;;14.70;3.10;;;4.60;99.90;;;;;;4990470;28;20033;-73
2022/02/21 11:32:40;;;;;;;13.80;2.97;;;4.70;99.90;;;;;;4989513;28;20022;-73
2022/02/21 11:35:12;;;;;;;17.70;3.53;;;4.60;99.90;;;;;;4988611;28;20026;-75
2022/02/21 11:37:38;;;;;;;16.83;3.03;;;4.60;99.90;;;;;;5001159;28;20034;-74
2022/02/21 11:40:05;;;;;;;11.55;2.92;;;4.70;99.90;;;;;;4989661;28;20388;-74
2022/02/21 11:42:33;;;;;;;22.33;4.15;;;4.70;99.90;;;;;;4992058;28;20488;-74
2022/02/21 11:45:28;;;;;;;19.30;3.28;;;4.70;99.90;;;;;;4990245;28;20033;-74
2022/02/21 11:47:59;;;;;;;20.73;3.92;;;4.70;99.90;;;;;;4983816;28;20062;-74
2022/02/21 11:50:28;;;;;;;18.83;3.65;;;4.70;99.90;;;;;;4988617;28;20023;-72
2022/02/21 11:53:24;;;;;;;18.58;3.72;;;4.60;99.90;;;;;;4987787;28;20023;-74
2022/02/21 11:55:51;;;;;;;15.35;2.45;;;4.60;99.90;;;;;;4983811;28;20054;-73
2022/02/21 11:58:18;;;;;;;19.75;3.80;;;4.60;99.90;;;;;;5003185;28;20381;-72
2022/02/21 12:00:43;;;;;;;13.20;2.97;;;4.60;99.90;;;;;;4985393;28;20027;-72
2022/02/21 12:03:21;;;;;;;22.10;3.28;;;4.60;99.90;;;;;;4984242;28;20039;-72
2022/02/21 12:06:06;;;;;;;12.13;2.38;;;4.50;99.90;;;;;;4985946;28;20048;-72
2022/02/21 12:08:32;;;;;;;7.85;2.70;;;4.50;99.90;;;;;;4980101;28;20045;-74
2022/02/21 12:11:04;;;;;;;14.65;3.00;;;4.50;99.90;;;;;;4993843;28;20018;-73
2022/02/21 12:13:31;;;;;;;16.52;2.72;;;4.50;99.90;;;;;;4996987;28;20058;-74
2022/02/21 12:16:04;;;;;;;16.40;3.65;;;4.50;99.90;;;;;;4983032;28;20113;-74
2022/02/21 12:18:29;;;;;;;177.82;78.63;;;4.40;99.90;;;;;;4986905;28;20440;-75
2022/02/21 12:21:19;;;;;;;28.38;11.27;;;4.40;99.90;;;;;;4979613;28;20085;-73
2022/02/21 12:23:58;;;;;;;47.08;18.40;;;4.40;99.90;;;;;;4983850;28;20510;-74
2022/02/21 12:26:42;;;;;;;170.48;76.28;;;4.40;99.90;;;;;;4966783;28;20484;-75
2022/02/21 12:29:22;;;;;;;7.82;3.45;;;4.30;99.90;;;;;;5002257;28;20492;-74
2022/02/21 12:32:04;;;;;;;10.82;2.20;;;4.30;99.90;;;;;;4999662;28;20038;-74
2022/02/21 12:34:32;;;;;;;11.77;2.53;;;4.40;99.90;;;;;;5006992;28;20022;-75
2022/02/21 12:37:10;;;;;;;11.02;2.25;;;4.30;99.90;;;;;;4971780;28;20027;-74
2022/02/21 12:39:39;;;;;;;7.97;2.03;;;4.30;99.90;;;;;;5002078;28;20057;-75
2022/02/21 12:42:06;;;;;;;11.05;2.42;;;4.40;99.90;;;;;;4990609;28;20077;-75
2022/02/21 12:44:31;;;;;;;7.25;1.75;;;4.30;99.90;;;;;;4987878;28;20029;-75
2022/02/21 12:47:00;;;;;;;11.18;1.95;;;4.30;99.90;;;;;;4987034;28;20262;-76
2022/02/21 12:49:34;;;;;;;7.97;2.15;;;4.30;99.90;;;;;;4983997;28;20553;-75